createdAt,value
2018-11-14T00:02:15.202Z,13.27
2018-11-14T00:04:43.271Z,12.33
2018-11-14T00:07:11.366Z,13.77
2018-11-14T00:09:39.533Z,13.43
2018-11-14T00:12:07.694Z,14.47
2018-11-14T00:14:35.738Z,14.13
2018-11-14T00:17:03.938Z,12.20
2018-11-14T00:19:32.188Z,13.27
2018-11-14T00:22:00.182Z,14.27
2018-11-14T00:24:28.250Z,14.83
2018-11-14T00:26:56.298Z,15.60
2018-11-14T00:29:24.381Z,14.37
2018-11-14T00:31:52.402Z,14.37
2018-11-14T00:34:20.518Z,14.73
2018-11-14T00:36:48.574Z,15.37
2018-11-14T00:39:16.630Z,15.17
2018-11-14T00:41:44.674Z,13.90
2018-11-14T00:44:12.736Z,15.37
2018-11-14T00:46:40.791Z,13.87
2018-11-14T00:49:08.857Z,14.23
2018-11-14T00:51:36.898Z,14.40
2018-11-14T00:54:05.463Z,15.30
2018-11-14T00:56:33.522Z,14.70
2018-11-14T00:59:01.594Z,16.70
2018-11-14T01:01:29.719Z,15.20
2018-11-14T01:03:57.801Z,14.93
2018-11-14T01:06:25.878Z,15.27
2018-11-14T01:08:54.043Z,16.40
2018-11-14T01:11:22.114Z,16.00
2018-11-14T01:13:50.191Z,14.70
2018-11-14T01:16:18.238Z,15.60
2018-11-14T01:18:46.401Z,13.17
2018-11-14T01:21:14.403Z,14.07
2018-11-14T01:23:42.454Z,15.60
2018-11-14T01:26:10.813Z,15.13
2018-11-14T01:28:38.570Z,15.00
2018-11-14T01:31:06.642Z,15.20
2018-11-14T01:33:34.687Z,14.33
2018-11-14T01:36:02.742Z,15.20
2018-11-14T01:38:30.803Z,15.47
2018-11-14T01:40:58.913Z,13.93
2018-11-14T01:43:26.925Z,14.93
2018-11-14T01:45:54.967Z,15.57
2018-11-14T01:48:23.050Z,12.60
2018-11-14T01:50:51.110Z,15.43
2018-11-14T01:53:19.170Z,16.60
2018-11-14T01:55:47.219Z,13.97
2018-11-14T01:58:15.271Z,13.27
2018-11-14T02:00:43.330Z,11.90
2018-11-14T02:03:11.398Z,12.10
2018-11-14T02:05:39.511Z,13.13
2018-11-14T02:08:07.566Z,15.33
2018-11-14T02:10:35.627Z,15.50
2018-11-14T02:13:03.678Z,16.53
2018-11-14T02:15:31.749Z,14.77
2018-11-14T02:17:59.817Z,14.17
2018-11-14T02:20:27.851Z,14.97
2018-11-14T02:22:55.925Z,13.83
2018-11-14T02:25:23.982Z,18.23
2018-11-14T02:27:52.035Z,18.17
2018-11-14T02:30:21.264Z,17.00
2018-11-14T02:32:49.324Z,14.57
2018-11-14T02:35:17.398Z,14.87
2018-11-14T02:37:46.006Z,15.50
2018-11-14T02:40:16.210Z,17.27
2018-11-14T02:42:44.315Z,14.50
2018-11-14T02:45:12.762Z,15.10
2018-11-14T02:47:40.810Z,12.73
2018-11-14T02:50:10.172Z,14.30
2018-11-14T02:52:38.226Z,12.93
2018-11-14T02:55:07.342Z,12.00
2018-11-14T02:57:35.551Z,13.63
2018-11-14T03:00:03.661Z,13.40
2018-11-14T03:02:31.718Z,14.70
2018-11-14T03:04:59.776Z,13.90
2018-11-14T03:07:27.833Z,12.30
2018-11-14T03:09:55.883Z,12.63
2018-11-14T03:12:23.980Z,14.37
2018-11-14T03:14:52.503Z,18.07
2018-11-14T03:17:20.570Z,19.47
2018-11-14T03:19:48.623Z,19.13
2018-11-14T03:22:16.663Z,21.87
2018-11-14T03:24:44.743Z,20.60
2018-11-14T03:27:12.800Z,18.50
2018-11-14T03:29:40.851Z,19.43
2018-11-14T03:32:08.905Z,19.40
2018-11-14T03:34:36.979Z,18.20
2018-11-14T03:37:05.510Z,18.10
2018-11-14T03:39:33.575Z,17.97
2018-11-14T03:42:01.659Z,15.97
2018-11-14T03:44:29.747Z,16.70
2018-11-14T03:46:57.818Z,17.33
2018-11-14T03:49:25.874Z,17.53
2018-11-14T03:51:53.942Z,16.83
2018-11-14T03:54:21.985Z,17.33
2018-11-14T03:56:50.038Z,17.83
2018-11-14T03:59:18.105Z,17.67
2018-11-14T04:01:46.226Z,15.13
2018-11-14T04:04:14.283Z,16.63
2018-11-14T04:06:42.357Z,16.87
2018-11-14T04:09:12.050Z,17.43
2018-11-14T04:11:40.307Z,18.00
2018-11-14T04:14:08.406Z,15.17
2018-11-14T04:16:36.475Z,14.83
2018-11-14T04:19:05.269Z,14.57
2018-11-14T04:21:33.323Z,15.55
2018-11-14T04:24:01.379Z,15.60
2018-11-14T04:26:29.439Z,15.93
2018-11-14T04:28:57.499Z,17.33
2018-11-14T04:31:25.542Z,18.10
2018-11-14T04:33:53.632Z,18.80
2018-11-14T04:36:21.699Z,20.63
2018-11-14T04:38:49.763Z,20.97
2018-11-14T04:41:17.818Z,20.87
2018-11-14T04:43:45.883Z,23.00
2018-11-14T04:46:13.943Z,21.93
2018-11-14T04:48:42.015Z,22.63
2018-11-14T04:51:10.083Z,21.30
2018-11-14T04:53:38.155Z,23.97
2018-11-14T04:56:06.394Z,21.10
2018-11-14T04:58:34.451Z,22.23
2018-11-14T05:01:02.526Z,20.90
2018-11-14T05:03:30.579Z,21.27
2018-11-14T05:05:58.631Z,18.53
2018-11-14T05:08:26.763Z,19.17
2018-11-14T05:10:54.823Z,17.97
2018-11-14T05:13:22.892Z,16.20
2018-11-14T05:15:50.938Z,17.00
2018-11-14T05:18:19.002Z,15.83
2018-11-14T05:20:47.066Z,15.43
2018-11-14T05:23:15.138Z,18.73
2018-11-14T05:25:43.216Z,19.30
2018-11-14T05:28:11.259Z,21.23
2018-11-14T05:30:39.331Z,17.23
2018-11-14T05:33:07.394Z,20.23
2018-11-14T05:35:35.439Z,18.20
2018-11-14T05:38:03.492Z,17.23
2018-11-14T05:40:31.555Z,18.10
2018-11-14T05:42:59.618Z,16.37
2018-11-14T05:45:27.714Z,16.27
2018-11-14T05:47:55.914Z,15.83
2018-11-14T05:50:24.402Z,14.97
2018-11-14T05:52:52.474Z,15.17
2018-11-14T05:55:20.640Z,12.90
2018-11-14T05:57:48.738Z,12.73
2018-11-14T06:00:23.338Z,13.13
2018-11-14T06:02:51.402Z,12.03
2018-11-14T06:05:19.466Z,12.67
2018-11-14T06:07:47.528Z,12.67
2018-11-14T06:10:15.562Z,11.97
2018-11-14T06:12:43.796Z,12.10
2018-11-14T06:15:14.358Z,13.57
2018-11-14T06:17:43.326Z,11.97
2018-11-14T06:20:13.338Z,14.13
2018-11-14T06:22:41.726Z,16.57
2018-11-14T06:25:24.762Z,15.57
2018-11-14T06:27:53.734Z,13.77
2018-11-14T06:30:22.326Z,14.03
2018-11-14T06:32:50.909Z,21.00
2018-11-14T06:35:19.382Z,16.40
2018-11-14T06:37:48.270Z,15.93
2018-11-14T06:40:16.328Z,16.53
2018-11-14T06:42:44.370Z,16.13
2018-11-14T06:45:13.823Z,16.40
2018-11-14T06:47:43.126Z,19.73
2018-11-14T06:50:11.975Z,14.47
2018-11-14T06:52:40.503Z,15.63
2018-11-14T06:55:09.990Z,13.77
2018-11-14T06:57:38.057Z,16.67
2018-11-14T07:00:08.746Z,13.90
2018-11-14T07:02:38.334Z,13.50
2018-11-14T07:05:06.465Z,13.97
2018-11-14T07:07:34.475Z,14.17
2018-11-14T07:10:02.539Z,16.80
2018-11-14T07:12:30.708Z,15.23
2018-11-14T07:14:58.766Z,14.80
2018-11-14T07:17:26.835Z,13.93
2018-11-14T07:19:54.882Z,14.37
2018-11-14T07:22:22.943Z,24.07
2018-11-14T07:24:50.990Z,14.47
2018-11-14T07:27:19.055Z,24.20
2018-11-14T07:29:47.114Z,17.07
2018-11-14T07:32:15.274Z,15.83
2018-11-14T07:34:43.266Z,18.37
2018-11-14T07:37:11.322Z,15.40
2018-11-14T07:39:39.383Z,15.47
2018-11-14T07:42:07.442Z,16.20
2018-11-14T07:44:35.494Z,19.00
2018-11-14T07:47:03.571Z,16.23
2018-11-14T07:49:31.636Z,16.73
2018-11-14T07:51:59.674Z,16.20
2018-11-14T07:54:27.739Z,16.63
2018-11-14T07:56:55.770Z,17.37
2018-11-14T07:59:23.857Z,17.53
2018-11-14T08:01:51.927Z,17.90
2018-11-14T08:04:19.983Z,19.17
2018-11-14T08:06:48.042Z,20.07
2018-11-14T08:09:16.114Z,20.07
2018-11-14T08:11:44.169Z,19.40
2018-11-14T08:14:12.210Z,19.33
2018-11-14T08:16:40.288Z,19.63
2018-11-14T08:19:08.330Z,17.37
2018-11-14T08:21:36.384Z,18.03
2018-11-14T08:24:04.524Z,17.87
2018-11-14T08:26:32.590Z,18.13
2018-11-14T08:29:00.634Z,16.40
2018-11-14T08:31:28.695Z,16.40
2018-11-14T08:33:56.746Z,17.00
2018-11-14T08:36:24.798Z,15.00
2018-11-14T08:38:52.834Z,14.57
2018-11-14T08:41:20.891Z,13.30
2018-11-14T08:43:48.965Z,12.40
2018-11-14T08:46:17.003Z,12.87
2018-11-14T08:48:45.071Z,13.30
2018-11-14T08:51:13.111Z,12.60
2018-11-14T08:53:41.158Z,13.33
2018-11-14T08:56:09.203Z,13.83
2018-11-14T08:58:37.261Z,14.00
2018-11-14T09:01:05.433Z,14.30
2018-11-14T09:03:33.483Z,14.37
2018-11-14T09:06:01.564Z,14.60
2018-11-14T09:08:29.614Z,16.37
2018-11-14T09:10:57.729Z,15.43
2018-11-14T09:13:25.711Z,14.77
2018-11-14T09:15:53.776Z,13.77
2018-11-14T09:18:21.921Z,12.43
2018-11-14T09:20:49.909Z,11.87
2018-11-14T09:23:17.970Z,13.47
2018-11-14T09:25:46.018Z,12.93
2018-11-14T09:28:14.067Z,13.93
2018-11-14T09:30:42.139Z,14.00
2018-11-14T09:33:10.228Z,14.17
2018-11-14T09:35:38.246Z,13.80
2018-11-14T09:38:06.322Z,14.20
2018-11-14T09:40:34.459Z,14.73
2018-11-14T09:43:02.431Z,14.23
2018-11-14T09:45:30.955Z,14.37
2018-11-14T09:47:59.023Z,14.63
2018-11-14T09:50:28.327Z,14.33
2018-11-14T09:52:58.760Z,13.93
2018-11-14T09:55:26.810Z,13.53
2018-11-14T09:57:54.895Z,13.00
2018-11-14T10:00:24.295Z,12.07
2018-11-14T10:02:54.176Z,11.73
2018-11-14T10:05:23.220Z,11.93
2018-11-14T10:07:51.312Z,12.03
2018-11-14T10:10:20.488Z,12.20
2018-11-14T10:12:48.534Z,12.17
2018-11-14T10:15:19.694Z,11.87
2018-11-14T10:17:48.170Z,10.83
2018-11-14T10:20:17.443Z,11.33
2018-11-14T10:22:45.748Z,11.67
2018-11-14T10:25:14.646Z,10.50
2018-11-14T10:27:43.349Z,10.37
2018-11-14T10:30:13.913Z,9.77
2018-11-14T10:32:42.751Z,10.43
2018-11-14T10:35:11.346Z,9.50
2018-11-14T10:37:39.662Z,9.73
2018-11-14T10:40:11.811Z,9.20
2018-11-14T10:42:39.995Z,9.73
2018-11-14T10:45:09.571Z,9.60
2018-11-14T10:47:37.633Z,8.43
2018-11-14T10:50:07.709Z,8.20
2018-11-14T10:52:35.746Z,7.77
2018-11-14T10:55:03.802Z,8.80
2018-11-14T10:57:32.146Z,7.93
2018-11-14T11:00:00.231Z,7.83
2018-11-14T11:02:33.783Z,7.10
2018-11-14T11:05:07.181Z,6.30
2018-11-14T11:08:43.663Z,6.20
2018-11-14T11:11:18.650Z,6.00
2018-11-14T11:14:20.536Z,5.80
2018-11-14T11:17:54.723Z,5.87
2018-11-14T11:20:22.749Z,5.83
2018-11-14T11:22:50.809Z,5.20
2018-11-14T11:25:18.851Z,5.77
2018-11-14T11:27:46.914Z,5.80
2018-11-14T11:30:14.956Z,5.50
2018-11-14T11:32:43.010Z,5.23
2018-11-14T11:35:11.068Z,4.97
2018-11-14T11:37:39.111Z,5.37
2018-11-14T11:40:07.635Z,5.30
2018-11-14T11:42:35.687Z,4.97
2018-11-14T11:45:03.742Z,5.10
2018-11-14T11:47:31.803Z,4.73
2018-11-14T11:49:59.846Z,5.20
2018-11-14T11:52:27.915Z,5.83
2018-11-14T11:54:55.963Z,5.37
2018-11-14T11:57:24.026Z,4.50
2018-11-14T11:59:52.077Z,5.07
2018-11-14T12:02:20.170Z,4.83
2018-11-14T12:04:48.166Z,4.73
2018-11-14T12:07:16.379Z,4.17
2018-11-14T12:09:44.441Z,4.70
2018-11-14T12:12:12.478Z,4.67
2018-11-14T12:14:40.521Z,4.53
2018-11-14T12:17:08.579Z,4.60
2018-11-14T12:19:36.638Z,4.30
2018-11-14T12:22:04.707Z,3.93
2018-11-14T12:24:32.756Z,3.97
2018-11-14T12:27:00.862Z,3.60
2018-11-14T12:29:28.870Z,4.13
2018-11-14T12:31:56.923Z,3.85
2018-11-14T12:34:24.984Z,3.60
2018-11-14T12:36:53.035Z,3.98
2018-11-14T12:39:21.078Z,3.67
2018-11-14T12:41:49.151Z,3.83
2018-11-14T12:44:17.178Z,3.33
2018-11-14T12:46:45.218Z,3.62
2018-11-14T12:49:13.265Z,3.62
2018-11-14T12:51:41.314Z,3.98
2018-11-14T12:54:09.355Z,3.42
2018-11-14T12:56:37.403Z,3.75
2018-11-14T12:59:05.442Z,3.22
2018-11-14T13:01:33.554Z,3.22
2018-11-14T13:04:01.614Z,3.47
2018-11-14T13:06:29.686Z,3.62
2018-11-14T13:08:57.735Z,3.67
2018-11-14T13:11:25.806Z,3.60
2018-11-14T13:13:53.851Z,3.80
2018-11-14T13:16:21.898Z,3.58
2018-11-14T13:18:49.948Z,4.00
2018-11-14T13:21:18.007Z,3.58
2018-11-14T13:23:46.067Z,3.60
2018-11-14T13:26:14.116Z,3.50
2018-11-14T13:28:42.193Z,3.27
2018-11-14T13:31:10.207Z,3.10
2018-11-14T13:33:38.254Z,3.40
2018-11-14T13:36:06.309Z,3.35
2018-11-14T13:38:34.346Z,3.58
2018-11-14T13:41:02.394Z,3.80
2018-11-14T13:43:30.443Z,3.47
2018-11-14T13:45:58.487Z,3.85
2018-11-14T13:48:26.530Z,4.10
2018-11-14T13:50:54.721Z,3.50
2018-11-14T13:53:22.631Z,3.15
2018-11-14T13:55:50.677Z,3.42
2018-11-14T13:58:18.720Z,3.20
2018-11-14T14:00:46.763Z,3.37
2018-11-14T14:03:14.810Z,3.25
2018-11-14T14:05:42.854Z,3.72
2018-11-14T14:08:10.929Z,3.27
2018-11-14T14:10:38.946Z,3.17
2018-11-14T14:13:07.011Z,3.45
2018-11-14T14:15:35.058Z,3.20
2018-11-14T14:18:03.094Z,2.87
2018-11-14T14:20:31.135Z,3.33
2018-11-14T14:22:59.182Z,3.22
2018-11-14T14:25:27.222Z,2.67
2018-11-14T14:27:55.258Z,2.50
2018-11-14T14:30:23.834Z,2.60
2018-11-14T14:32:51.905Z,2.33
2018-11-14T14:35:21.198Z,1.53
2018-11-14T14:37:49.261Z,1.50
2018-11-14T14:40:18.675Z,1.80
2018-11-14T14:42:46.850Z,1.30
2018-11-14T14:45:16.562Z,1.63
2018-11-14T14:47:44.616Z,1.50
2018-11-14T14:50:14.134Z,1.70
2018-11-14T14:52:42.726Z,1.53
2018-11-14T14:55:13.524Z,1.60
2018-11-14T14:57:42.325Z,2.00
2018-11-14T15:00:13.389Z,1.60
2018-11-14T15:02:41.599Z,1.70
2018-11-14T15:05:10.763Z,2.30
2018-11-14T15:07:38.817Z,2.60
2018-11-14T15:10:08.955Z,2.00
2018-11-14T15:12:37.129Z,2.30
2018-11-14T15:15:05.507Z,3.00
2018-11-14T15:17:33.554Z,2.20
2018-11-14T15:20:01.634Z,2.23
2018-11-14T15:22:29.722Z,1.90
2018-11-14T15:24:58.027Z,1.97
2018-11-14T15:27:26.076Z,2.00
2018-11-14T15:29:54.127Z,2.30
2018-11-14T15:32:22.183Z,2.10
2018-11-14T15:34:50.244Z,2.13
2018-11-14T15:37:18.282Z,2.57
2018-11-14T15:39:46.323Z,2.40
2018-11-14T15:42:14.363Z,3.13
2018-11-14T15:44:42.422Z,3.20
2018-11-14T15:47:10.486Z,3.30
2018-11-14T15:49:38.535Z,3.80
2018-11-14T15:52:06.902Z,3.80
2018-11-14T15:54:35.179Z,3.33
2018-11-14T15:57:03.239Z,3.53
2018-11-14T15:59:31.415Z,2.90
2018-11-14T16:01:59.459Z,2.67
2018-11-14T16:04:27.510Z,2.90
2018-11-14T16:06:55.559Z,2.90
2018-11-14T16:09:23.607Z,3.10
2018-11-14T16:11:51.674Z,3.70
2018-11-14T16:14:19.715Z,3.23
2018-11-14T16:16:47.763Z,3.27
2018-11-14T16:19:15.818Z,3.20
2018-11-14T16:21:43.885Z,3.40
2018-11-14T16:24:11.927Z,4.17
2018-11-14T16:26:39.962Z,5.70
2018-11-14T16:29:08.009Z,4.77
2018-11-14T16:31:36.093Z,4.10
2018-11-14T16:34:04.103Z,3.63
2018-11-14T16:36:32.167Z,3.97
2018-11-14T16:39:00.211Z,3.57
2018-11-14T16:41:28.258Z,3.90
2018-11-14T16:43:56.324Z,7.63
2018-11-14T16:46:24.359Z,5.60
2018-11-14T16:48:52.411Z,4.53
2018-11-14T16:51:20.467Z,4.23
2018-11-14T16:53:48.527Z,8.70
2018-11-14T16:56:16.576Z,5.30
2018-11-14T16:58:44.622Z,4.07
2018-11-14T17:01:12.735Z,3.40
2018-11-14T17:03:40.911Z,3.30
2018-11-14T17:06:08.834Z,3.63
2018-11-14T17:08:36.891Z,3.30
2018-11-14T17:11:05.544Z,3.60
2018-11-14T17:13:33.627Z,3.27
2018-11-14T17:16:01.683Z,3.93
2018-11-14T17:18:29.750Z,3.80
2018-11-14T17:20:57.814Z,4.07
2018-11-14T17:23:25.868Z,4.50
2018-11-14T17:25:53.918Z,5.10
2018-11-14T17:28:21.995Z,4.53
2018-11-14T17:30:50.063Z,4.53
2018-11-14T17:33:18.164Z,5.00
2018-11-14T17:35:47.067Z,5.00
2018-11-14T17:38:15.114Z,5.70
2018-11-14T17:40:43.235Z,5.73
2018-11-14T17:43:11.282Z,6.23
2018-11-14T17:45:39.346Z,6.77
2018-11-14T17:48:07.386Z,7.20
2018-11-14T17:50:35.467Z,7.47
2018-11-14T17:53:04.072Z,7.70
2018-11-14T17:55:32.260Z,8.17
2018-11-14T17:58:00.572Z,7.57
2018-11-14T18:00:29.903Z,7.77
2018-11-14T18:02:58.055Z,9.00
2018-11-14T18:05:27.179Z,9.43
2018-11-14T18:07:55.610Z,8.57
2018-11-14T18:10:25.086Z,9.40
2018-11-14T18:12:54.162Z,8.60
2018-11-14T18:15:22.210Z,9.97
2018-11-14T18:17:51.227Z,9.57
2018-11-14T18:20:20.623Z,10.20
2018-11-14T18:22:49.418Z,9.80
2018-11-14T18:25:17.601Z,10.60
2018-11-14T18:27:45.675Z,9.87
2018-11-14T18:30:16.669Z,10.07
2018-11-14T18:32:44.720Z,10.67
2018-11-14T18:35:14.073Z,10.63
2018-11-14T18:37:42.970Z,10.80
2018-11-14T18:40:13.396Z,10.87
2018-11-14T18:42:41.674Z,12.50
2018-11-14T18:45:15.786Z,12.00
2018-11-14T18:47:44.276Z,12.63
2018-11-14T18:50:13.270Z,12.13
2018-11-14T18:52:41.601Z,11.93
2018-11-14T18:55:11.154Z,12.40
2018-11-14T18:57:39.785Z,12.33
2018-11-14T19:00:10.342Z,13.87
2018-11-14T19:02:38.414Z,15.13
2018-11-14T19:05:06.611Z,15.17
2018-11-14T19:07:34.771Z,13.73
2018-11-14T19:10:03.062Z,13.13
2018-11-14T19:12:31.182Z,14.40
2018-11-14T19:14:59.198Z,14.10
2018-11-14T19:17:27.303Z,14.60
2018-11-14T19:19:55.379Z,15.23
2018-11-14T19:22:23.483Z,15.20
2018-11-14T19:24:51.703Z,15.57
2018-11-14T19:27:19.883Z,15.53
2018-11-14T19:29:48.263Z,15.70
2018-11-14T19:32:16.746Z,16.43
2018-11-14T19:34:44.690Z,15.63
2018-11-14T19:37:13.082Z,16.13
2018-11-14T19:39:41.139Z,14.17
2018-11-14T19:42:09.303Z,16.43
2018-11-14T19:44:37.494Z,15.47
2018-11-14T19:47:05.855Z,15.40
2018-11-14T19:49:33.925Z,16.20
2018-11-14T19:52:02.090Z,15.73
2018-11-14T19:54:30.142Z,17.17
2018-11-14T19:56:58.186Z,15.73
2018-11-14T19:59:26.263Z,15.97
2018-11-14T20:01:54.551Z,16.47
2018-11-14T20:04:22.822Z,17.13
2018-11-14T20:06:50.899Z,17.63
2018-11-14T20:09:18.945Z,17.17
2018-11-14T20:11:47.007Z,19.03
2018-11-14T20:14:15.134Z,17.63
2018-11-14T20:16:43.197Z,17.07
2018-11-14T20:19:11.307Z,19.10
2018-11-14T20:21:39.390Z,18.90
2018-11-14T20:24:07.478Z,23.33
2018-11-14T20:26:35.554Z,21.40
2018-11-14T20:29:03.623Z,20.63
2018-11-14T20:31:31.755Z,20.97
2018-11-14T20:33:59.777Z,21.60
2018-11-14T20:36:27.843Z,21.63
2018-11-14T20:38:55.918Z,21.17
2018-11-14T20:41:23.984Z,20.40
2018-11-14T20:43:52.051Z,20.80
2018-11-14T20:46:20.150Z,22.20
2018-11-14T20:48:48.228Z,22.30
2018-11-14T20:51:16.274Z,24.50
2018-11-14T20:53:44.362Z,21.23
2018-11-14T20:56:12.454Z,22.93
2018-11-14T20:58:40.515Z,22.50
2018-11-14T21:01:08.603Z,23.00
2018-11-14T21:03:36.654Z,22.87
2018-11-14T21:06:04.736Z,21.63
2018-11-14T21:08:32.810Z,20.73
2018-11-14T21:11:00.899Z,21.27
2018-11-14T21:13:28.979Z,21.63
2018-11-14T21:15:57.070Z,21.53
2018-11-14T21:18:25.211Z,22.87
2018-11-14T21:20:53.275Z,21.47
2018-11-14T21:23:21.339Z,21.87
2018-11-14T21:25:49.415Z,22.63
2018-11-14T21:28:17.483Z,20.97
2018-11-14T21:30:45.544Z,21.10
2018-11-14T21:33:13.746Z,22.20
2018-11-14T21:35:41.848Z,21.17
2018-11-14T21:38:10.082Z,21.43
2018-11-14T21:40:38.134Z,21.33
2018-11-14T21:43:06.962Z,20.73
2018-11-14T21:45:35.062Z,20.23
2018-11-14T21:48:08.446Z,19.77
2018-11-14T21:50:36.516Z,21.63
2018-11-14T21:53:04.658Z,21.30
2018-11-14T21:55:32.675Z,20.30
2018-11-14T21:58:00.750Z,20.43
2018-11-14T22:00:32.927Z,21.60
2018-11-14T22:03:01.306Z,21.17
2018-11-14T22:05:29.587Z,21.00
2018-11-14T22:07:57.702Z,21.73
2018-11-14T22:10:26.252Z,21.17
2018-11-14T22:12:54.364Z,21.27
2018-11-14T22:15:23.719Z,21.40
2018-11-14T22:17:51.835Z,21.07
2018-11-14T22:20:21.241Z,21.87
2018-11-14T22:22:49.564Z,23.33
2018-11-14T22:25:19.083Z,22.93
2018-11-14T22:27:47.206Z,23.43
2018-11-14T22:30:19.563Z,22.00
2018-11-14T22:32:47.645Z,23.83
2018-11-14T22:35:17.002Z,22.13
2018-11-14T22:37:44.943Z,21.50
2018-11-14T22:40:14.558Z,23.00
2018-11-14T22:42:43.015Z,24.20
2018-11-14T22:45:13.481Z,23.30
2018-11-14T22:47:41.870Z,24.47
2018-11-14T22:50:11.428Z,23.40
2018-11-14T22:52:40.262Z,24.13
2018-11-14T22:55:09.043Z,25.07
2018-11-14T22:57:37.130Z,24.40
2018-11-14T23:00:09.051Z,24.67
2018-11-14T23:02:37.103Z,24.10
2018-11-14T23:05:05.194Z,24.80
2018-11-14T23:07:33.246Z,23.90
2018-11-14T23:10:01.425Z,23.53
2018-11-14T23:12:29.381Z,23.07
2018-11-14T23:14:57.427Z,22.00
2018-11-14T23:17:25.481Z,22.97
2018-11-14T23:19:53.538Z,24.63
2018-11-14T23:22:21.591Z,24.03
2018-11-14T23:24:49.634Z,25.50
2018-11-14T23:27:17.686Z,24.33
2018-11-14T23:29:45.749Z,24.40
2018-11-14T23:32:13.813Z,25.67
2018-11-14T23:34:47.254Z,27.47
2018-11-14T23:37:15.307Z,26.00
2018-11-14T23:39:43.366Z,26.67
2018-11-14T23:42:11.430Z,26.30
2018-11-14T23:44:39.511Z,25.70
2018-11-14T23:47:07.549Z,24.37
2018-11-14T23:49:35.614Z,25.33
2018-11-14T23:52:03.658Z,25.67
2018-11-14T23:54:31.742Z,26.27
2018-11-14T23:56:59.842Z,25.17
2018-11-14T23:59:27.910Z,24.47
